createdAt,value
2023-01-19T00:01:27.394Z,99584.41
2023-01-19T00:03:56.491Z,99573.47
2023-01-19T00:06:24.270Z,99564.72
2023-01-19T00:08:52.103Z,99565.31
2023-01-19T00:11:20.523Z,99572.78
2023-01-19T00:13:50.611Z,99552.66
2023-01-19T00:16:19.759Z,99556.94
2023-01-19T00:18:47.687Z,99561.00
2023-01-19T00:21:17.175Z,99561.53
2023-01-19T00:23:47.476Z,99543.00
2023-01-19T00:26:17.269Z,99544.63
2023-01-19T00:28:45.495Z,99549.72
2023-01-19T00:31:13.691Z,99568.34
2023-01-19T00:33:41.407Z,99570.56
2023-01-19T00:36:10.267Z,99550.69
2023-01-19T00:38:39.985Z,99576.94
2023-01-19T00:41:07.886Z,99560.63
2023-01-19T00:43:35.622Z,99538.41
2023-01-19T00:46:03.435Z,99527.72
2023-01-19T00:48:31.205Z,99540.50
2023-01-19T00:51:00.027Z,99547.38
2023-01-19T00:53:29.137Z,99542.16
2023-01-19T00:55:58.211Z,99536.47
2023-01-19T00:58:26.036Z,99534.69
2023-01-19T01:00:57.460Z,99537.34
2023-01-19T01:03:27.996Z,99529.66
2023-01-19T01:05:55.906Z,99543.09
2023-01-19T01:08:23.653Z,99544.56
2023-01-19T01:10:51.464Z,99535.69
2023-01-19T01:13:22.405Z,99538.53
2023-01-19T01:15:52.105Z,99553.09
2023-01-19T01:18:20.506Z,99554.13
2023-01-19T01:20:48.265Z,99555.84
2023-01-19T01:23:16.425Z,99547.72
2023-01-19T01:25:44.163Z,99551.13
2023-01-19T01:28:11.868Z,99536.41
2023-01-19T01:30:41.135Z,99535.00
2023-01-19T01:33:08.992Z,99528.97
2023-01-19T01:35:36.730Z,99516.59
2023-01-19T01:38:04.722Z,99518.66
2023-01-19T01:40:32.561Z,99512.94
2023-01-19T01:43:02.682Z,99533.09
2023-01-19T01:45:33.183Z,99553.50
2023-01-19T01:48:09.049Z,99556.94
2023-01-19T01:51:00.746Z,99555.41
2023-01-19T01:53:30.993Z,99542.41
2023-01-19T01:55:59.455Z,99540.25
2023-01-19T01:58:27.849Z,99558.28
2023-01-19T02:01:13.393Z,99565.38
2023-01-19T02:03:42.710Z,99529.28
2023-01-19T02:06:12.757Z,99532.13
2023-01-19T02:09:02.284Z,99534.38
2023-01-19T02:11:49.245Z,99519.72
2023-01-19T02:14:17.016Z,99520.66
2023-01-19T02:16:44.809Z,99516.53
2023-01-19T02:19:18.004Z,99517.69
2023-01-19T02:21:54.121Z,99511.66
2023-01-19T02:24:23.841Z,99520.50
2023-01-19T02:26:52.238Z,99536.53
2023-01-19T02:29:22.774Z,99530.19
2023-01-19T02:31:50.657Z,99535.66
2023-01-19T02:34:20.926Z,99531.97
2023-01-19T02:36:53.146Z,99528.53
2023-01-19T02:39:26.721Z,99541.25
2023-01-19T02:42:01.357Z,99556.81
2023-01-19T02:44:30.765Z,99577.72
2023-01-19T02:46:58.512Z,99586.69
2023-01-19T02:49:30.177Z,99583.72
2023-01-19T02:51:58.567Z,99601.19
2023-01-19T02:54:40.232Z,99596.03
2023-01-19T02:57:21.287Z,99615.66
2023-01-19T02:59:59.441Z,99596.22
2023-01-19T03:02:36.432Z,99610.94
2023-01-19T03:05:25.224Z,99614.88
2023-01-19T03:08:00.145Z,99618.25
2023-01-19T03:10:37.220Z,99614.63
2023-01-19T03:13:12.170Z,99603.44
2023-01-19T03:15:46.773Z,99604.00
2023-01-19T03:18:17.902Z,99599.09
2023-01-19T03:20:46.720Z,99611.66
2023-01-19T03:23:16.719Z,99604.47
2023-01-19T03:25:49.337Z,99601.16
2023-01-19T03:28:21.341Z,99599.22
2023-01-19T03:30:54.654Z,99607.19
2023-01-19T03:33:27.747Z,99604.91
2023-01-19T03:36:03.578Z,99613.19
2023-01-19T03:38:36.426Z,99615.72
2023-01-19T03:41:10.241Z,99616.59
2023-01-19T03:43:40.883Z,99608.88
2023-01-19T03:46:10.968Z,99612.22
2023-01-19T03:48:39.847Z,99594.59
2023-01-19T03:51:10.614Z,99626.13
2023-01-19T03:53:38.380Z,99637.81
2023-01-19T03:56:12.924Z,99634.69
2023-01-19T03:58:40.669Z,99637.66
2023-01-19T04:01:08.464Z,99620.31
2023-01-19T04:03:36.212Z,99645.28
2023-01-19T04:06:04.067Z,99655.91
2023-01-19T04:08:32.515Z,99664.22
2023-01-19T04:11:00.554Z,99667.34
2023-01-19T04:13:30.493Z,99671.69
2023-01-19T04:16:01.022Z,99653.56
2023-01-19T04:18:29.258Z,99652.50
2023-01-19T04:21:00.501Z,99678.31
2023-01-19T04:23:28.320Z,99663.47
2023-01-19T04:25:58.726Z,99663.56
2023-01-19T04:28:26.865Z,99671.06
2023-01-19T04:30:56.114Z,99669.78
2023-01-19T04:33:24.187Z,99657.97
2023-01-19T04:35:54.591Z,99674.88
2023-01-19T04:38:23.224Z,99672.91
2023-01-19T04:40:52.653Z,99686.81
2023-01-19T04:43:20.630Z,99684.28
2023-01-19T04:45:49.113Z,99688.91
2023-01-19T04:48:19.389Z,99682.16
2023-01-19T04:50:47.300Z,99678.75
2023-01-19T04:53:16.496Z,99670.09
2023-01-19T04:55:44.198Z,99682.09
2023-01-19T04:58:11.906Z,99663.81
2023-01-19T05:00:39.624Z,99665.16
2023-01-19T05:03:07.442Z,99672.22
2023-01-19T05:05:36.674Z,99664.88
2023-01-19T05:08:04.727Z,99661.75
2023-01-19T05:10:32.454Z,99673.31
2023-01-19T05:13:00.604Z,99662.00
2023-01-19T05:15:28.461Z,99654.81
2023-01-19T05:17:58.005Z,99674.09
2023-01-19T05:20:26.158Z,99661.28
2023-01-19T05:22:55.296Z,99653.38
2023-01-19T05:25:23.090Z,99658.88
2023-01-19T05:27:50.967Z,99643.84
2023-01-19T05:30:19.492Z,99648.53
2023-01-19T05:32:47.964Z,99635.41
2023-01-19T05:35:18.215Z,99644.63
2023-01-19T05:37:46.299Z,99664.84
2023-01-19T05:40:15.489Z,99649.97
2023-01-19T05:42:43.204Z,99630.25
2023-01-19T05:45:12.452Z,99646.25
2023-01-19T05:47:40.445Z,99654.81
2023-01-19T05:50:08.929Z,99647.91
2023-01-19T05:52:37.999Z,99660.09
2023-01-19T05:55:06.419Z,99666.72
2023-01-19T05:57:35.484Z,99661.31
2023-01-19T06:00:03.582Z,99640.63
2023-01-19T06:02:31.375Z,99653.25
2023-01-19T06:04:59.149Z,99652.50
2023-01-19T06:07:29.081Z,99646.53
2023-01-19T06:09:56.944Z,99645.97
2023-01-19T06:12:24.736Z,99638.19
2023-01-19T06:14:53.800Z,99634.91
2023-01-19T06:17:21.518Z,99619.56
2023-01-19T06:19:49.227Z,99601.78
2023-01-19T06:22:17.030Z,99622.41
2023-01-19T06:24:44.740Z,99626.28
2023-01-19T06:27:13.784Z,99614.56
2023-01-19T06:29:41.465Z,99621.38
2023-01-19T06:32:10.515Z,99631.81
2023-01-19T06:34:40.447Z,99628.06
2023-01-19T06:37:08.176Z,99638.03
2023-01-19T06:39:37.768Z,99642.19
2023-01-19T06:42:05.572Z,99639.94
2023-01-19T06:44:33.335Z,99652.44
2023-01-19T06:47:15.079Z,99651.78
2023-01-19T06:49:45.092Z,99666.56
2023-01-19T06:52:15.979Z,99671.59
2023-01-19T06:54:45.340Z,99673.66
2023-01-19T06:57:13.966Z,99668.66
2023-01-19T06:59:42.027Z,99663.53
2023-01-19T07:02:27.320Z,99687.53
2023-01-19T07:04:57.877Z,99674.69
2023-01-19T07:07:25.932Z,99701.78
2023-01-19T07:09:54.290Z,99679.84
2023-01-19T07:12:22.332Z,99654.13
2023-01-19T07:14:50.485Z,99682.03
2023-01-19T07:17:18.392Z,99672.25
2023-01-19T07:19:47.596Z,99672.94
2023-01-19T07:22:16.698Z,99667.81
2023-01-19T07:24:44.503Z,99671.16
2023-01-19T07:27:12.520Z,99671.50
2023-01-19T07:29:40.343Z,99669.75
2023-01-19T07:32:08.182Z,99653.91
2023-01-19T07:34:36.488Z,99645.06
2023-01-19T07:37:04.460Z,99657.06
2023-01-19T07:39:33.563Z,99653.38
2023-01-19T07:42:01.265Z,99636.97
2023-01-19T07:44:29.017Z,99662.81
2023-01-19T07:46:56.725Z,99663.66
2023-01-19T07:49:24.428Z,99653.56
2023-01-19T07:51:52.236Z,99670.22
2023-01-19T07:54:20.777Z,99694.06
2023-01-19T07:56:49.872Z,99701.69
2023-01-19T07:59:17.599Z,99704.09
2023-01-19T08:01:45.608Z,99691.25
2023-01-19T08:04:13.475Z,99674.84
2023-01-19T08:06:42.002Z,99701.00
2023-01-19T08:09:10.063Z,99693.16
2023-01-19T08:11:37.798Z,99702.66
2023-01-19T08:14:08.027Z,99709.56
2023-01-19T08:16:35.977Z,99695.13
2023-01-19T08:19:03.927Z,99676.66
2023-01-19T08:21:33.265Z,99686.59
2023-01-19T08:24:01.233Z,99700.00
2023-01-19T08:26:31.367Z,99698.16
2023-01-19T08:29:00.955Z,99721.41
2023-01-19T08:31:30.543Z,99721.38
2023-01-19T08:33:58.830Z,99729.38
2023-01-19T08:36:26.630Z,99743.28
2023-01-19T08:38:54.407Z,99736.38
2023-01-19T08:41:22.472Z,99750.25
2023-01-19T08:43:50.534Z,99758.75
2023-01-19T08:46:21.654Z,99765.34
2023-01-19T08:48:51.129Z,99785.31
2023-01-19T08:51:19.885Z,99780.31
2023-01-19T08:53:47.953Z,99783.09
2023-01-19T08:56:15.715Z,99759.91
2023-01-19T08:58:46.711Z,99744.94
2023-01-19T09:01:18.616Z,99759.31
2023-01-19T09:03:46.814Z,99755.22
2023-01-19T09:06:19.246Z,99751.22
2023-01-19T09:08:48.145Z,99763.94
2023-01-19T09:11:17.509Z,99767.84
2023-01-19T09:13:45.468Z,99770.72
2023-01-19T09:16:15.221Z,99755.41
2023-01-19T09:18:43.213Z,99778.06
2023-01-19T09:21:11.033Z,99808.75
2023-01-19T09:23:40.428Z,99768.22
2023-01-19T09:26:08.223Z,99769.41
2023-01-19T09:28:36.162Z,99758.69
2023-01-19T09:31:06.135Z,99790.09
2023-01-19T09:33:34.210Z,99792.16
2023-01-19T09:36:02.174Z,99795.34
2023-01-19T09:38:32.607Z,99820.19
2023-01-19T09:41:04.308Z,99831.94
2023-01-19T09:43:40.968Z,99813.53
2023-01-19T09:46:15.273Z,99806.03
2023-01-19T09:48:48.648Z,99819.47
2023-01-19T09:51:19.909Z,99810.69
2023-01-19T09:54:04.106Z,99820.19
2023-01-19T09:56:34.128Z,99846.94
2023-01-19T09:59:02.663Z,99831.00
2023-01-19T10:01:51.788Z,99849.44
2023-01-19T10:04:40.588Z,99865.63
2023-01-19T10:07:14.944Z,99873.69
2023-01-19T10:09:55.116Z,99900.47
2023-01-19T10:12:36.104Z,99885.88
2023-01-19T10:15:12.660Z,99890.19
2023-01-19T10:17:52.103Z,99908.56
2023-01-19T10:20:28.964Z,99927.31
2023-01-19T10:22:59.870Z,99888.66
2023-01-19T10:25:28.473Z,99887.69
2023-01-19T10:27:59.552Z,99880.53
2023-01-19T10:30:30.735Z,99897.28
2023-01-19T10:32:58.920Z,99885.13
2023-01-19T10:35:27.042Z,99906.13
2023-01-19T10:38:00.063Z,99904.75
2023-01-19T10:40:33.920Z,99889.91
2023-01-19T10:43:03.474Z,99888.88
2023-01-19T10:45:32.639Z,99881.22
2023-01-19T10:48:07.256Z,99902.56
2023-01-19T10:50:39.706Z,99912.09
2023-01-19T10:53:21.318Z,99923.41
2023-01-19T10:55:49.412Z,99933.72
2023-01-19T10:58:31.144Z,99928.47
2023-01-19T11:01:14.864Z,99929.13
2023-01-19T11:03:42.737Z,99948.69
2023-01-19T11:06:22.744Z,99941.53
2023-01-19T11:08:52.374Z,99955.94
2023-01-19T11:11:21.225Z,99955.22
2023-01-19T11:14:08.034Z,99955.97
2023-01-19T11:16:38.128Z,99944.91
2023-01-19T11:19:05.940Z,99947.50
2023-01-19T11:21:34.076Z,99962.94
2023-01-19T11:24:05.595Z,99951.34
2023-01-19T11:26:40.819Z,99929.16
2023-01-19T11:29:19.181Z,99924.34
2023-01-19T11:31:47.037Z,99924.00
2023-01-19T11:34:27.744Z,99919.78
2023-01-19T11:37:00.756Z,99920.34
2023-01-19T11:39:29.911Z,99921.38
2023-01-19T11:42:02.112Z,99927.03
2023-01-19T11:44:34.205Z,99920.66
2023-01-19T11:47:04.407Z,99942.75
2023-01-19T11:49:43.382Z,99947.66
2023-01-19T11:52:26.935Z,99923.84
2023-01-19T11:54:59.124Z,99936.63
2023-01-19T11:57:28.222Z,99947.56
2023-01-19T12:00:03.362Z,99960.78
2023-01-19T12:02:42.586Z,99957.72
2023-01-19T12:05:15.961Z,99972.63
2023-01-19T12:07:45.152Z,100000.31
2023-01-19T12:10:24.902Z,100002.06
2023-01-19T12:12:54.204Z,100019.59
2023-01-19T12:15:30.947Z,100014.66
2023-01-19T12:18:02.193Z,100011.16
2023-01-19T12:20:34.834Z,100025.94
2023-01-19T12:23:10.715Z,100035.03
2023-01-19T12:26:00.793Z,100042.81
2023-01-19T12:28:32.280Z,100042.84
2023-01-19T12:31:02.666Z,100045.63
2023-01-19T12:33:35.848Z,100059.34
2023-01-19T12:36:06.509Z,100032.03
2023-01-19T12:38:52.292Z,100026.63
2023-01-19T12:41:29.758Z,100016.63
2023-01-19T12:44:30.438Z,100007.28
2023-01-19T12:47:04.216Z,100000.53
2023-01-19T12:49:35.226Z,99981.31
2023-01-19T12:52:19.481Z,99999.16
2023-01-19T12:54:54.680Z,99981.47
2023-01-19T12:57:26.656Z,99972.97
2023-01-19T12:59:59.603Z,99967.16
2023-01-19T13:02:54.169Z,99946.44
2023-01-19T13:05:53.516Z,99957.94
2023-01-19T13:08:29.882Z,99972.31
2023-01-19T13:11:23.816Z,99968.63
2023-01-19T13:14:27.266Z,99961.72
2023-01-19T13:17:29.025Z,99968.47
2023-01-19T13:20:27.190Z,99962.56
2023-01-19T13:23:20.196Z,99964.09
2023-01-19T13:25:52.799Z,99986.50
2023-01-19T13:28:25.567Z,99974.94
2023-01-19T13:30:57.600Z,99969.16
2023-01-19T13:33:27.865Z,99958.13
2023-01-19T13:35:59.480Z,99935.88
2023-01-19T13:38:28.929Z,99957.50
2023-01-19T13:41:00.833Z,99955.09
2023-01-19T13:43:33.636Z,99963.03
2023-01-19T13:46:03.534Z,99952.16
2023-01-19T13:48:34.041Z,99963.56
2023-01-19T13:51:05.661Z,99989.81
2023-01-19T13:53:34.338Z,99973.34
2023-01-19T13:56:20.565Z,100013.28
2023-01-19T13:59:10.201Z,100047.97
2023-01-19T14:01:40.035Z,100063.19
2023-01-19T14:04:07.976Z,100069.63
2023-01-19T14:06:40.459Z,100059.28
2023-01-19T14:09:19.652Z,100079.91
2023-01-19T14:12:04.802Z,100065.25
2023-01-19T14:14:32.765Z,100070.38
2023-01-19T14:17:00.610Z,100068.94
2023-01-19T14:19:28.620Z,100038.56
2023-01-19T14:22:03.170Z,100033.44
2023-01-19T14:24:32.995Z,100029.75
2023-01-19T14:27:20.836Z,100010.19
2023-01-19T14:29:53.600Z,100007.09
2023-01-19T14:32:23.468Z,100000.69
2023-01-19T14:34:53.995Z,100018.31
2023-01-19T14:37:26.289Z,99993.88
2023-01-19T14:39:59.213Z,99988.75
2023-01-19T14:42:29.879Z,99993.91
2023-01-19T14:45:01.825Z,100002.25
2023-01-19T14:47:34.309Z,99992.00
2023-01-19T14:50:10.810Z,100005.44
2023-01-19T14:52:42.940Z,100005.22
2023-01-19T14:55:21.581Z,100009.47
2023-01-19T14:57:49.300Z,100016.13
2023-01-19T15:00:19.063Z,99999.84
2023-01-19T15:02:47.506Z,100006.06
2023-01-19T15:05:15.715Z,99998.72
2023-01-19T15:07:46.727Z,100014.03
2023-01-19T15:10:19.275Z,100018.44
2023-01-19T15:12:47.035Z,100012.84
2023-01-19T15:15:17.456Z,100018.66
2023-01-19T15:17:45.461Z,100057.38
2023-01-19T15:20:17.104Z,100038.34
2023-01-19T15:22:46.919Z,100033.63
2023-01-19T15:25:16.386Z,100034.00
2023-01-19T15:27:44.865Z,100054.50
2023-01-19T15:30:18.083Z,100036.66
2023-01-19T15:32:45.958Z,100044.16
2023-01-19T15:35:16.094Z,100050.75
2023-01-19T15:37:43.896Z,100045.56
2023-01-19T15:40:14.174Z,100021.75
2023-01-19T15:42:42.594Z,100027.84
2023-01-19T15:45:31.771Z,100045.47
2023-01-19T15:47:59.530Z,100059.50
2023-01-19T15:50:27.532Z,100072.00
2023-01-19T15:52:55.266Z,100075.22
2023-01-19T15:55:24.747Z,100069.81
2023-01-19T15:57:52.505Z,100097.16
2023-01-19T16:00:20.757Z,100097.63
2023-01-19T16:02:50.180Z,100108.81
2023-01-19T16:05:17.999Z,100096.19
2023-01-19T16:07:45.795Z,100096.31
2023-01-19T16:10:13.609Z,100117.66
2023-01-19T16:12:42.671Z,100108.00
2023-01-19T16:15:11.513Z,100106.56
2023-01-19T16:17:39.424Z,100098.94
2023-01-19T16:20:09.593Z,100074.38
2023-01-19T16:22:37.814Z,100076.66
2023-01-19T16:25:06.605Z,100085.94
2023-01-19T16:27:34.388Z,100097.63
2023-01-19T16:30:04.964Z,100090.47
2023-01-19T16:32:33.981Z,100096.16
2023-01-19T16:35:01.696Z,100071.91
2023-01-19T16:37:29.423Z,100107.03
2023-01-19T16:39:57.283Z,100102.75
2023-01-19T16:42:25.034Z,100114.66
2023-01-19T16:44:54.591Z,100103.25
2023-01-19T16:47:23.733Z,100107.19
2023-01-19T16:49:51.490Z,100121.19
2023-01-19T16:52:19.345Z,100104.66
2023-01-19T16:54:47.077Z,100111.56
2023-01-19T16:57:14.966Z,100114.06
2023-01-19T16:59:44.188Z,100132.63
2023-01-19T17:02:12.253Z,100123.56
2023-01-19T17:04:41.369Z,100100.06
2023-01-19T17:07:09.087Z,100093.56
2023-01-19T17:09:37.415Z,100089.63
2023-01-19T17:12:07.551Z,100094.66
2023-01-19T17:14:36.659Z,100121.66
2023-01-19T17:17:05.003Z,100100.00
2023-01-19T17:19:33.094Z,100105.88
2023-01-19T17:22:02.292Z,100085.94
2023-01-19T17:24:30.128Z,100108.84
2023-01-19T17:26:57.884Z,100109.16
2023-01-19T17:29:25.797Z,100085.88
2023-01-19T17:31:53.573Z,100081.25
2023-01-19T17:34:21.331Z,100113.72
2023-01-19T17:36:51.797Z,100093.22
2023-01-19T17:39:20.921Z,100098.97
2023-01-19T17:41:50.305Z,100074.94
2023-01-19T17:44:19.065Z,100093.56
2023-01-19T17:46:46.795Z,100070.16
2023-01-19T17:49:14.491Z,100064.09
2023-01-19T17:51:42.218Z,100042.47
2023-01-19T17:54:10.796Z,100014.13
2023-01-19T17:56:41.290Z,100039.66
2023-01-19T17:59:09.311Z,99994.38
2023-01-19T18:01:39.943Z,99994.88
2023-01-19T18:04:09.467Z,99994.22
2023-01-19T18:06:37.786Z,99993.66
2023-01-19T18:09:06.866Z,100002.34
2023-01-19T18:11:35.088Z,100044.50
2023-01-19T18:14:05.443Z,100052.72
2023-01-19T18:16:33.438Z,100057.94
2023-01-19T18:19:01.276Z,100048.75
2023-01-19T18:21:30.369Z,100024.72
2023-01-19T18:24:03.118Z,100028.81
2023-01-19T18:26:32.463Z,100027.28
2023-01-19T18:29:00.908Z,100000.66
2023-01-19T18:31:30.436Z,99992.56
2023-01-19T18:33:58.184Z,99982.25
2023-01-19T18:36:26.076Z,99976.88
2023-01-19T18:38:53.891Z,99986.38
2023-01-19T18:41:22.565Z,100001.38
2023-01-19T18:43:51.944Z,99983.25
2023-01-19T18:46:21.156Z,99970.06
2023-01-19T18:48:50.339Z,99967.91
2023-01-19T18:51:18.439Z,99946.59
2023-01-19T18:53:46.704Z,99950.34
2023-01-19T18:56:15.765Z,99959.13
2023-01-19T18:58:43.724Z,99968.41
2023-01-19T19:01:20.141Z,99963.69
2023-01-19T19:03:48.023Z,99999.00
2023-01-19T19:06:20.531Z,99972.22
2023-01-19T19:08:49.933Z,99968.94
2023-01-19T19:11:18.207Z,99957.69
2023-01-19T19:13:46.166Z,99961.28
2023-01-19T19:16:14.702Z,99940.28
2023-01-19T19:18:42.844Z,99948.38
2023-01-19T19:21:12.070Z,99935.78
2023-01-19T19:23:41.180Z,99938.94
2023-01-19T19:26:11.210Z,99926.41
2023-01-19T19:28:40.706Z,99922.09
2023-01-19T19:31:10.719Z,99916.78
2023-01-19T19:33:39.520Z,99912.38
2023-01-19T19:36:09.101Z,99939.50
2023-01-19T19:38:37.755Z,99937.00
2023-01-19T19:41:12.295Z,99952.97
2023-01-19T19:43:40.101Z,99956.50
2023-01-19T19:46:09.847Z,99943.59
2023-01-19T19:48:39.368Z,99930.91
2023-01-19T19:51:18.087Z,99916.06
2023-01-19T19:53:47.476Z,99930.00
2023-01-19T19:56:19.604Z,99952.34
2023-01-19T19:58:47.354Z,99955.66
2023-01-19T20:01:17.273Z,99961.75
2023-01-19T20:03:45.386Z,99958.69
2023-01-19T20:06:15.084Z,99957.81
2023-01-19T20:08:43.151Z,99971.38
2023-01-19T20:11:13.051Z,99985.56
2023-01-19T20:13:43.927Z,99987.00
2023-01-19T20:16:13.908Z,100002.00
2023-01-19T20:18:43.271Z,99999.09
2023-01-19T20:21:15.840Z,99992.19
2023-01-19T20:23:44.630Z,99992.22
2023-01-19T20:26:14.386Z,99987.34
2023-01-19T20:28:43.606Z,99994.81
2023-01-19T20:31:13.152Z,99981.97
2023-01-19T20:33:41.234Z,99973.06
2023-01-19T20:36:10.798Z,99979.44
2023-01-19T20:38:39.281Z,99998.13
2023-01-19T20:41:08.249Z,99991.69
2023-01-19T20:43:36.563Z,99991.53
2023-01-19T20:46:06.334Z,99991.94
2023-01-19T20:48:34.257Z,100003.94
2023-01-19T20:51:03.632Z,100005.31
2023-01-19T20:53:31.700Z,100005.19
2023-01-19T20:55:59.478Z,100004.13
2023-01-19T20:58:27.188Z,100010.34
2023-01-19T21:00:54.999Z,100009.09
2023-01-19T21:03:24.226Z,100013.25
2023-01-19T21:05:52.000Z,100018.22
2023-01-19T21:08:19.700Z,100008.75
2023-01-19T21:10:47.404Z,100009.84
2023-01-19T21:13:15.204Z,100014.06
2023-01-19T21:15:42.901Z,100028.19
2023-01-19T21:18:10.608Z,100025.06
2023-01-19T21:20:39.778Z,100029.59
2023-01-19T21:23:07.493Z,100032.84
2023-01-19T21:25:37.166Z,100028.41
2023-01-19T21:28:05.089Z,100035.53
2023-01-19T21:30:32.875Z,100035.88
2023-01-19T21:33:02.208Z,100040.75
2023-01-19T21:35:29.940Z,100053.00
2023-01-19T21:37:59.077Z,100055.16
2023-01-19T21:40:26.780Z,100052.84
2023-01-19T21:42:54.504Z,100061.69
2023-01-19T21:45:22.239Z,100060.84
2023-01-19T21:47:49.978Z,100070.78
2023-01-19T21:50:19.471Z,100079.94
2023-01-19T21:52:47.232Z,100076.38
2023-01-19T21:55:16.447Z,100085.16
2023-01-19T21:57:44.162Z,100084.91
2023-01-19T22:00:12.523Z,100095.50
2023-01-19T22:02:41.099Z,100107.94
2023-01-19T22:05:10.565Z,100098.34
2023-01-19T22:07:38.583Z,100098.94
2023-01-19T22:10:09.218Z,100102.94
2023-01-19T22:12:39.429Z,100104.31
2023-01-19T22:15:08.630Z,100096.91
2023-01-19T22:17:36.604Z,100109.19
2023-01-19T22:20:04.753Z,100126.06
2023-01-19T22:22:33.536Z,100135.69
2023-01-19T22:25:01.308Z,100130.63
2023-01-19T22:27:32.952Z,100153.75
2023-01-19T22:30:02.056Z,100145.75
2023-01-19T22:32:29.778Z,100156.50
2023-01-19T22:34:57.485Z,100170.63
2023-01-19T22:37:25.266Z,100168.72
2023-01-19T22:39:54.166Z,100176.63
2023-01-19T22:42:21.911Z,100178.94
2023-01-19T22:44:49.722Z,100183.44
2023-01-19T22:47:18.807Z,100172.56
2023-01-19T22:49:46.559Z,100166.97
2023-01-19T22:52:14.338Z,100166.16
2023-01-19T22:54:42.063Z,100153.59
2023-01-19T22:57:11.847Z,100163.38
2023-01-19T22:59:39.591Z,100175.44
2023-01-19T23:02:09.159Z,100185.66
2023-01-19T23:04:39.459Z,100204.22
2023-01-19T23:07:09.199Z,100221.06
2023-01-19T23:09:38.778Z,100241.97
2023-01-19T23:12:06.718Z,100234.19
2023-01-19T23:14:34.662Z,100244.38
2023-01-19T23:17:02.439Z,100231.84
2023-01-19T23:19:30.205Z,100200.25
2023-01-19T23:21:59.317Z,100194.47
2023-01-19T23:24:27.276Z,100204.13
2023-01-19T23:26:54.982Z,100196.59
2023-01-19T23:29:23.321Z,100184.25
2023-01-19T23:31:53.405Z,100202.59
2023-01-19T23:34:21.173Z,100185.78
2023-01-19T23:36:49.499Z,100187.44
2023-01-19T23:39:20.798Z,100182.81
2023-01-19T23:41:49.029Z,100193.44
2023-01-19T23:44:17.226Z,100192.59
2023-01-19T23:46:45.274Z,100189.00
2023-01-19T23:49:13.124Z,100195.91
2023-01-19T23:51:41.198Z,100197.03
2023-01-19T23:54:09.229Z,100194.25
2023-01-19T23:56:39.151Z,100197.22
2023-01-19T23:59:09.007Z,100202.84
